Time;durP1;ratioP1;P1;durP2;ratioP2;P2;SDS_P1;SDS_P2;PMS_P1;PMS_P2;Temp;Humidity;BMP_temperature;BMP_pressure;BME280_temperature;BME280_humidity;BME280_pressure;Samples;Min_cycle;Max_cycle;Signal;HPM_P1;HPM_P2
2023/07/23 00:00:47;;;;;;;11.32;7.90;;;17.30;99.90;;;;;;4993052;28;20042;-79
2023/07/23 00:03:33;;;;;;;9.57;7.60;;;17.30;99.90;;;;;;4976951;28;20129;-79
2023/07/23 00:06:19;;;;;;;11.35;7.82;;;17.40;99.90;;;;;;4976822;28;20042;-79
2023/07/23 00:09:05;;;;;;;10.60;8.18;;;17.40;99.90;;;;;;4962237;28;20041;-78
2023/07/23 00:11:51;;;;;;;9.10;7.38;;;17.30;99.90;;;;;;4961996;28;20049;-79
2023/07/23 00:14:39;;;;;;;11.35;8.10;;;17.30;99.90;;;;;;4963199;28;20089;-79
2023/07/23 00:17:25;;;;;;;9.52;7.82;;;17.30;99.90;;;;;;4962660;28;20042;-78
2023/07/23 00:20:11;;;;;;;9.82;7.18;;;17.30;99.90;;;;;;4950131;28;20062;-79
2023/07/23 00:22:57;;;;;;;12.00;8.13;;;17.30;99.90;;;;;;4961806;28;20049;-77
2023/07/23 00:25:45;;;;;;;10.93;8.00;;;17.30;99.90;;;;;;4948021;28;20054;-77
2023/07/23 00:28:31;;;;;;;11.32;8.05;;;17.30;99.90;;;;;;4955408;28;20332;-77
2023/07/23 00:31:17;;;;;;;10.23;7.72;;;17.30;99.90;;;;;;4980392;28;20053;-77
2023/07/23 00:34:03;;;;;;;11.52;8.05;;;17.30;99.90;;;;;;4959449;28;20181;-73
2023/07/23 00:36:50;;;;;;;10.20;8.10;;;17.30;99.90;;;;;;4945781;28;20379;-73
2023/07/23 00:39:37;;;;;;;10.93;7.65;;;17.30;99.90;;;;;;4973485;28;20506;-73
2023/07/23 00:42:23;;;;;;;9.05;7.60;;;17.30;99.90;;;;;;4979698;28;20070;-73
2023/07/23 00:45:09;;;;;;;9.90;7.60;;;17.30;99.90;;;;;;4977436;28;20041;-74
2023/07/23 00:47:55;;;;;;;11.00;8.43;;;17.30;99.90;;;;;;4976663;28;20127;-73
2023/07/23 00:50:41;;;;;;;12.75;8.50;;;17.30;99.90;;;;;;4966166;28;20049;-74
2023/07/23 00:53:28;;;;;;;10.35;8.35;;;17.30;99.90;;;;;;4961245;28;20538;-74
2023/07/23 00:56:14;;;;;;;13.05;8.60;;;17.30;99.90;;;;;;4975359;28;20476;-75
2023/07/23 00:59:00;;;;;;;11.43;9.20;;;17.30;99.90;;;;;;4992438;28;20113;-74
2023/07/23 01:01:48;;;;;;;12.85;8.90;;;17.30;99.90;;;;;;4958816;28;20053;-74
2023/07/23 01:04:34;;;;;;;13.20;8.75;;;17.20;99.90;;;;;;4964729;28;20045;-74
2023/07/23 01:07:23;;;;;;;11.30;8.05;;;17.30;99.90;;;;;;4991084;28;20108;-74
2023/07/23 01:10:09;;;;;;;12.95;8.88;;;17.20;99.90;;;;;;4962697;28;20046;-74
2023/07/23 01:12:55;;;;;;;11.32;7.93;;;17.20;99.90;;;;;;4976889;28;20058;-73
2023/07/23 01:15:41;;;;;;;11.75;8.55;;;17.20;99.90;;;;;;4965829;28;20042;-74
2023/07/23 01:18:27;;;;;;;11.10;8.43;;;17.10;99.90;;;;;;4958828;28;20174;-75
2023/07/23 01:21:16;;;;;;;11.30;9.52;;;17.10;99.90;;;;;;4964482;28;20046;-74
2023/07/23 01:24:03;;;;;;;13.52;8.55;;;17.10;99.90;;;;;;4988132;28;20104;-75
2023/07/23 01:26:49;;;;;;;11.15;8.85;;;17.10;99.90;;;;;;4986026;28;20122;-74
2023/07/23 01:29:35;;;;;;;10.80;7.72;;;17.00;99.90;;;;;;4978281;28;20042;-75
2023/07/23 01:32:20;;;;;;;11.23;8.45;;;17.00;99.90;;;;;;4975871;28;20042;-74
2023/07/23 01:35:11;;;;;;;12.45;8.73;;;17.00;99.90;;;;;;4974939;28;20546;-74
2023/07/23 01:37:57;;;;;;;12.48;8.60;;;17.00;99.90;;;;;;4979409;28;20058;-74
2023/07/23 01:40:43;;;;;;;14.65;9.55;;;16.90;99.90;;;;;;4982321;28;20379;-74
2023/07/23 01:43:29;;;;;;;11.20;8.40;;;16.90;99.90;;;;;;4947795;28;20047;-74
2023/07/23 01:46:15;;;;;;;12.38;8.88;;;16.90;99.90;;;;;;4960940;28;20039;-74
2023/07/23 01:49:01;;;;;;;10.90;8.98;;;16.90;99.90;;;;;;4978960;28;20057;-74
2023/07/23 01:51:47;;;;;;;13.15;9.45;;;16.80;99.90;;;;;;4980384;28;20144;-74
2023/07/23 01:54:33;;;;;;;12.90;9.05;;;16.80;99.90;;;;;;4979322;28;20042;-74
2023/07/23 01:57:19;;;;;;;14.23;10.18;;;16.80;99.90;;;;;;4961471;28;20089;-74
2023/07/23 02:00:06;;;;;;;12.57;9.43;;;16.70;99.90;;;;;;4989095;28;20046;-75
2023/07/23 02:02:52;;;;;;;13.02;8.45;;;16.80;99.90;;;;;;4976436;28;20093;-75
2023/07/23 02:05:38;;;;;;;13.82;10.15;;;16.70;99.90;;;;;;4962658;28;20522;-75
2023/07/23 02:08:24;;;;;;;13.13;9.40;;;16.70;99.90;;;;;;4976304;28;20050;-74
2023/07/23 02:11:09;;;;;;;15.93;10.02;;;16.70;99.90;;;;;;4975896;28;20124;-74
2023/07/23 02:13:55;;;;;;;12.90;9.45;;;16.70;99.90;;;;;;4971225;28;20539;-75
2023/07/23 02:16:41;;;;;;;10.75;8.65;;;16.70;99.90;;;;;;4970177;28;20090;-75
2023/07/23 02:19:27;;;;;;;13.27;9.35;;;16.70;99.90;;;;;;4977065;28;20703;-75
2023/07/23 02:22:13;;;;;;;11.80;8.85;;;16.60;99.90;;;;;;4976975;28;20046;-75
2023/07/23 02:24:59;;;;;;;11.43;8.93;;;16.70;99.90;;;;;;4990366;28;20490;-74
2023/07/23 02:27:45;;;;;;;10.57;8.20;;;16.60;99.90;;;;;;4989149;28;20046;-75
2023/07/23 02:30:32;;;;;;;12.80;8.80;;;16.60;99.90;;;;;;4974744;28;20069;-74
2023/07/23 02:33:18;;;;;;;10.65;8.40;;;16.60;99.90;;;;;;4964540;28;20073;-75
2023/07/23 02:36:05;;;;;;;11.95;8.73;;;16.60;99.90;;;;;;4961747;28;20077;-75
2023/07/23 02:38:51;;;;;;;11.50;8.73;;;16.60;99.90;;;;;;4985253;28;20050;-74
2023/07/23 02:41:37;;;;;;;16.95;10.52;;;16.60;99.90;;;;;;4974446;28;20043;-75
2023/07/23 02:44:23;;;;;;;11.20;8.88;;;16.60;99.90;;;;;;4968767;28;20039;-75
2023/07/23 02:47:09;;;;;;;14.45;9.48;;;16.50;99.90;;;;;;4993275;28;20069;-75
2023/07/23 02:49:55;;;;;;;13.98;9.75;;;16.50;99.90;;;;;;4978341;28;20415;-75
2023/07/23 02:52:41;;;;;;;12.32;9.10;;;16.40;99.90;;;;;;4980783;28;20450;-74
2023/07/23 02:55:26;;;;;;;11.75;8.98;;;16.40;99.90;;;;;;4968202;28;20133;-75
2023/07/23 02:58:12;;;;;;;14.13;10.65;;;16.40;99.90;;;;;;4975880;28;20784;-75
2023/07/23 03:00:58;;;;;;;13.07;9.00;;;16.40;99.90;;;;;;4988007;28;20054;-74
2023/07/23 03:03:47;;;;;;;14.10;9.55;;;16.40;99.90;;;;;;4995141;28;20348;-74
2023/07/23 03:06:33;;;;;;;14.60;10.60;;;16.40;99.90;;;;;;4967693;28;20038;-74
2023/07/23 03:09:22;;;;;;;12.85;10.20;;;16.40;99.90;;;;;;4991538;28;20080;-73
2023/07/23 03:12:09;;;;;;;13.95;10.35;;;16.30;99.90;;;;;;4992811;28;20141;-73
2023/07/23 03:14:55;;;;;;;14.15;9.82;;;16.30;99.90;;;;;;5013960;28;20056;-73
2023/07/23 03:17:41;;;;;;;14.48;10.52;;;16.30;99.90;;;;;;4994920;28;20072;-73
2023/07/23 03:20:27;;;;;;;16.42;11.30;;;16.30;99.90;;;;;;4998704;28;20049;-73
2023/07/23 03:23:13;;;;;;;13.43;10.40;;;16.30;99.90;;;;;;5007524;28;20115;-74
2023/07/23 03:25:59;;;;;;;13.65;10.43;;;16.20;99.90;;;;;;5011364;28;20667;-73
2023/07/23 03:28:45;;;;;;;17.10;12.02;;;16.10;99.90;;;;;;5017848;28;20152;-74
2023/07/23 03:31:31;;;;;;;13.25;10.20;;;16.10;99.90;;;;;;5016432;28;20042;-74
2023/07/23 03:34:17;;;;;;;16.30;11.50;;;16.10;99.90;;;;;;4983814;28;20076;-74
2023/07/23 03:37:03;;;;;;;13.85;10.43;;;16.00;99.90;;;;;;5012311;28;20064;-74
2023/07/23 03:39:49;;;;;;;16.85;12.00;;;16.00;99.90;;;;;;5002525;28;20047;-74
2023/07/23 03:42:35;;;;;;;14.02;10.70;;;16.00;99.90;;;;;;5013997;28;20044;-74
2023/07/23 03:45:21;;;;;;;14.80;10.52;;;16.00;99.90;;;;;;5000063;28;20124;-73
2023/07/23 03:48:07;;;;;;;13.20;10.13;;;16.00;99.90;;;;;;5016178;28;20041;-74
2023/07/23 03:50:53;;;;;;;12.90;9.95;;;16.00;99.90;;;;;;5006319;28;20037;-74
2023/07/23 03:53:39;;;;;;;15.25;11.13;;;16.00;99.90;;;;;;5005403;28;20385;-75
2023/07/23 03:56:25;;;;;;;17.70;11.98;;;16.00;99.90;;;;;;5024685;28;20065;-74
2023/07/23 03:59:11;;;;;;;17.90;12.27;;;16.00;99.90;;;;;;5016700;28;20084;-74
2023/07/23 04:01:57;;;;;;;16.58;11.75;;;15.90;99.90;;;;;;5006091;28;20064;-75
2023/07/23 04:04:43;;;;;;;14.68;10.93;;;15.90;99.90;;;;;;4986972;28;20041;-74
2023/07/23 04:07:29;;;;;;;16.77;12.77;;;15.90;99.90;;;;;;5000392;28;20600;-74
2023/07/23 04:10:15;;;;;;;17.48;12.57;;;15.80;99.90;;;;;;5006511;28;20046;-75
2023/07/23 04:13:03;;;;;;;16.00;11.65;;;15.80;99.90;;;;;;5014855;28;20049;-74
2023/07/23 04:15:49;;;;;;;16.35;12.20;;;15.80;99.90;;;;;;4996251;28;20038;-74
2023/07/23 04:18:47;;;;;;;17.73;12.35;;;15.80;99.90;;;;;;4987355;28;20057;-74
2023/07/23 04:21:34;;;;;;;;;;;15.80;99.90;;;;;;5004216;28;20089;-74
2023/07/23 04:24:20;;;;;;;18.38;12.52;;;15.80;99.90;;;;;;5005160;28;20635;-74
2023/07/23 04:27:06;;;;;;;14.25;11.05;;;15.90;99.90;;;;;;4999664;28;20047;-74
2023/07/23 04:29:53;;;;;;;17.85;13.00;;;15.80;99.90;;;;;;4999170;28;20041;-73
2023/07/23 04:32:39;;;;;;;18.48;13.15;;;15.80;99.90;;;;;;5011862;28;20045;-74
2023/07/23 04:35:25;;;;;;;18.65;12.40;;;15.80;99.90;;;;;;4999847;28;20104;-73
2023/07/23 04:38:11;;;;;;;16.55;11.98;;;15.80;99.90;;;;;;5000239;28;20049;-74
2023/07/23 04:40:57;;;;;;;17.45;11.73;;;15.80;99.90;;;;;;5017511;28;20041;-73
2023/07/23 04:43:43;;;;;;;14.68;11.30;;;15.80;99.90;;;;;;4987150;28;20038;-74
2023/07/23 04:46:29;;;;;;;17.90;13.00;;;15.80;99.90;;;;;;4987700;28;20037;-73
2023/07/23 04:49:15;;;;;;;19.80;12.98;;;15.80;99.90;;;;;;4987155;28;20107;-74
2023/07/23 04:52:02;;;;;;;15.15;11.10;;;15.80;99.90;;;;;;5018257;28;20738;-74
2023/07/23 04:54:48;;;;;;;16.13;10.88;;;15.90;99.90;;;;;;5020054;28;20095;-73
2023/07/23 04:57:34;;;;;;;17.77;10.40;;;15.90;99.90;;;;;;5006528;28;20048;-74
2023/07/23 05:00:20;;;;;;;17.45;11.52;;;15.90;99.90;;;;;;5016429;28;21422;-74
2023/07/23 05:03:06;;;;;;;14.23;10.05;;;15.90;99.90;;;;;;5004841;28;20529;-74
2023/07/23 05:05:52;;;;;;;16.60;10.50;;;15.90;99.90;;;;;;4988985;28;20096;-74
2023/07/23 05:08:38;;;;;;;13.32;10.18;;;15.90;99.90;;;;;;5007872;28;20033;-74
2023/07/23 05:11:24;;;;;;;19.05;11.07;;;15.90;99.90;;;;;;4995496;28;20118;-74
2023/07/23 05:14:10;;;;;;;18.85;11.02;;;15.90;99.90;;;;;;5004300;28;20484;-74
2023/07/23 05:16:56;;;;;;;15.60;11.02;;;15.80;99.90;;;;;;5019803;28;20486;-74
2023/07/23 05:19:42;;;;;;;16.30;10.60;;;15.80;99.90;;;;;;5003304;28;20044;-75
2023/07/23 05:22:28;;;;;;;16.25;10.63;;;15.90;99.90;;;;;;5002167;28;20041;-74
2023/07/23 05:25:14;;;;;;;14.88;11.02;;;15.90;99.90;;;;;;4986854;28;20526;-74
2023/07/23 05:28:00;;;;;;;18.83;10.50;;;15.90;99.90;;;;;;5002705;28;20693;-74
2023/07/23 05:30:47;;;;;;;14.77;10.30;;;15.90;99.90;;;;;;4997490;28;20054;-74
2023/07/23 05:33:33;;;;;;;15.15;10.60;;;15.90;99.90;;;;;;5012855;28;20041;-74
2023/07/23 05:36:19;;;;;;;17.35;11.15;;;15.90;99.90;;;;;;4997310;28;20057;-74
2023/07/23 05:39:05;;;;;;;18.02;11.85;;;15.90;99.90;;;;;;5002091;28;20037;-75
2023/07/23 05:41:51;;;;;;;13.70;10.02;;;15.90;99.90;;;;;;4998163;28;20132;-74
2023/07/23 05:44:37;;;;;;;15.07;10.30;;;16.00;99.90;;;;;;5005936;28;20033;-74
2023/07/23 05:47:23;;;;;;;14.90;9.77;;;16.00;99.90;;;;;;5013061;28;20342;-74
2023/07/23 05:50:10;;;;;;;13.38;9.02;;;16.00;99.90;;;;;;5001895;28;20041;-74
2023/07/23 05:52:56;;;;;;;12.88;9.88;;;16.10;99.90;;;;;;5000862;28;20057;-75
2023/07/23 05:55:42;;;;;;;14.27;9.63;;;16.10;99.90;;;;;;4996904;28;20049;-74
2023/07/23 05:58:28;;;;;;;13.48;8.90;;;16.10;99.90;;;;;;4997151;28;20042;-74
2023/07/23 06:01:14;;;;;;;14.05;9.35;;;16.20;99.90;;;;;;4990611;28;20041;-74
2023/07/23 06:04:00;;;;;;;15.90;9.55;;;16.20;99.90;;;;;;4982650;28;20076;-74
2023/07/23 06:06:46;;;;;;;14.75;8.23;;;16.20;99.90;;;;;;4998366;28;20120;-74
2023/07/23 06:09:32;;;;;;;12.98;7.97;;;16.20;99.90;;;;;;5001604;28;20052;-74
2023/07/23 06:12:18;;;;;;;12.73;9.05;;;16.20;99.90;;;;;;5016559;28;20033;-74
2023/07/23 06:15:04;;;;;;;15.88;8.82;;;16.20;99.90;;;;;;5013427;28;20320;-74
2023/07/23 06:17:50;;;;;;;13.93;7.95;;;16.30;99.90;;;;;;5002231;28;20037;-74
2023/07/23 06:20:36;;;;;;;13.45;8.05;;;16.30;99.90;;;;;;4996838;28;20105;-74
2023/07/23 06:23:22;;;;;;;15.70;8.20;;;16.30;99.90;;;;;;4998485;28;20044;-74
2023/07/23 06:26:08;;;;;;;14.68;7.25;;;16.40;99.90;;;;;;4987826;28;20038;-74
2023/07/23 06:28:55;;;;;;;13.48;7.85;;;16.40;99.90;;;;;;4996689;28;20124;-74
2023/07/23 06:31:42;;;;;;;10.80;7.78;;;16.40;99.90;;;;;;4971560;28;20054;-74
2023/07/23 06:34:28;;;;;;;12.98;7.50;;;16.40;99.90;;;;;;4983513;28;20081;-74
2023/07/23 06:37:13;;;;;;;13.55;7.78;;;16.50;99.90;;;;;;4995396;28;20232;-74
2023/07/23 06:39:59;;;;;;;11.30;7.13;;;16.40;99.90;;;;;;4988328;28;20089;-74
2023/07/23 06:42:45;;;;;;;11.93;7.65;;;16.50;99.90;;;;;;5003702;28;20033;-74
2023/07/23 06:45:31;;;;;;;12.05;6.97;;;16.50;99.90;;;;;;5002351;28;20041;-74
2023/07/23 06:48:19;;;;;;;15.07;7.63;;;16.60;99.90;;;;;;5013120;28;20125;-74
2023/07/23 06:51:05;;;;;;;10.88;6.65;;;16.60;99.90;;;;;;4989560;28;20117;-74
2023/07/23 06:53:51;;;;;;;9.93;7.22;;;16.70;99.90;;;;;;4998402;28;20172;-74
2023/07/23 06:56:37;;;;;;;12.00;6.43;;;16.70;99.90;;;;;;4981132;28;20091;-74
2023/07/23 06:59:23;;;;;;;10.68;6.63;;;16.80;99.90;;;;;;4994632;28;20049;-73
2023/07/23 07:02:09;;;;;;;12.00;5.80;;;16.90;99.90;;;;;;5015898;28;20735;-73
2023/07/23 07:04:55;;;;;;;14.48;6.75;;;16.90;99.90;;;;;;5017332;28;20034;-73
2023/07/23 07:07:41;;;;;;;10.30;5.63;;;17.00;99.90;;;;;;4983803;28;20053;-74
2023/07/23 07:10:27;;;;;;;8.77;5.97;;;17.10;99.90;;;;;;4995138;28;20042;-74
2023/07/23 07:13:13;;;;;;;9.55;5.72;;;17.30;99.90;;;;;;4997270;28;20669;-74
2023/07/23 07:15:59;;;;;;;12.10;5.55;;;17.30;99.90;;;;;;5015717;28;20751;-74
2023/07/23 07:18:45;;;;;;;10.40;6.07;;;17.40;99.90;;;;;;5004998;28;20446;-75
2023/07/23 07:21:31;;;;;;;7.43;5.47;;;17.60;99.90;;;;;;4982313;28;20696;-75
2023/07/23 07:24:17;;;;;;;10.43;5.60;;;17.70;99.90;;;;;;4991181;28;20088;-74
2023/07/23 07:27:09;;;;;;;7.82;5.55;;;17.70;99.90;;;;;;5005191;28;20041;-74
2023/07/23 07:29:55;;;;;;;10.02;5.85;;;17.80;99.90;;;;;;5000159;28;20045;-74
2023/07/23 07:32:41;;;;;;;9.18;5.35;;;17.90;99.90;;;;;;5014699;28;20046;-75
2023/07/23 07:35:27;;;;;;;8.00;5.10;;;18.00;99.90;;;;;;5011193;28;20049;-75
2023/07/23 07:38:13;;;;;;;7.47;4.97;;;18.00;99.90;;;;;;5018433;28;20044;-75
2023/07/23 07:41:01;;;;;;;9.05;5.80;;;18.20;99.90;;;;;;5034588;28;20690;-74
2023/07/23 07:43:47;;;;;;;10.07;5.97;;;18.30;99.90;;;;;;4999203;28;20038;-74
2023/07/23 07:46:33;;;;;;;9.48;5.78;;;18.30;99.90;;;;;;4985384;28;20273;-74
2023/07/23 07:49:19;;;;;;;8.30;5.28;;;18.30;99.90;;;;;;5018649;28;20041;-74
2023/07/23 07:52:05;;;;;;;9.38;5.93;;;18.40;99.90;;;;;;5016761;28;20045;-74
2023/07/23 07:54:52;;;;;;;9.20;5.50;;;18.50;99.90;;;;;;5005793;28;20385;-78
2023/07/23 07:57:38;;;;;;;9.73;5.18;;;18.60;99.90;;;;;;4987620;28;20052;-78
2023/07/23 08:00:25;;;;;;;10.45;5.32;;;18.70;99.90;;;;;;4987909;28;20046;-78
2023/07/23 08:03:11;;;;;;;7.85;4.43;;;18.80;99.90;;;;;;4988272;28;20050;-78
2023/07/23 08:05:57;;;;;;;7.15;4.80;;;19.00;99.90;;;;;;4997067;28;20041;-78
2023/07/23 08:08:43;;;;;;;9.27;4.38;;;19.00;99.90;;;;;;5003381;28;20046;-78
2023/07/23 08:11:32;;;;;;;7.63;4.45;;;19.20;99.90;;;;;;4994856;28;20079;-75
2023/07/23 08:14:18;;;;;;;7.63;4.18;;;19.30;99.90;;;;;;4991941;28;20503;-77
2023/07/23 08:17:05;;;;;;;7.20;4.55;;;19.30;99.90;;;;;;4999391;28;20038;-77
2023/07/23 08:19:51;;;;;;;10.27;4.50;;;19.60;99.90;;;;;;4981099;28;20164;-75
2023/07/23 08:22:37;;;;;;;7.10;4.53;;;19.80;99.90;;;;;;4989808;28;20069;-76
2023/07/23 08:25:24;;;;;;;8.88;4.45;;;19.90;99.90;;;;;;5013745;28;20034;-77
2023/07/23 08:28:10;;;;;;;8.05;3.88;;;20.00;99.90;;;;;;4989859;28;20421;-76
2023/07/23 08:30:57;;;;;;;7.30;3.83;;;20.00;99.90;;;;;;5000181;28;20041;-77
2023/07/23 08:33:43;;;;;;;6.10;3.95;;;20.00;99.90;;;;;;5006884;28;20485;-74
2023/07/23 08:36:30;;;;;;;6.90;3.83;;;20.20;99.40;;;;;;4987892;28;20111;-74
2023/07/23 08:39:17;;;;;;;5.45;3.85;;;20.20;99.30;;;;;;5004381;28;20068;-74
2023/07/23 08:42:48;;;;;;;6.53;3.80;;;20.30;99.00;;;;;;4990097;28;20124;-74
2023/07/23 08:45:48;;;;;;;7.45;3.72;;;20.30;98.50;;;;;;4993799;28;20038;-74
2023/07/23 08:48:55;;;;;;;5.88;3.40;;;20.50;98.90;;;;;;5017944;28;20033;-74
2023/07/23 08:51:43;;;;;;;7.20;3.88;;;20.60;98.50;;;;;;5014904;28;20838;-74
2023/07/23 08:54:29;;;;;;;7.60;3.55;;;20.60;98.20;;;;;;5007426;28;20046;-73
2023/07/23 08:57:16;;;;;;;5.57;3.20;;;20.60;97.60;;;;;;4997226;28;20478;-74
2023/07/23 09:00:04;;;;;;;7.30;3.90;;;20.70;98.10;;;;;;4988150;28;20136;-74
2023/07/23 09:02:50;;;;;;;;;;;20.80;98.10;;;;;;5009232;28;20045;-74
2023/07/23 09:05:36;;;;;;;7.47;3.95;;;20.80;97.10;;;;;;5012158;28;19963;-73
2023/07/23 09:08:23;;;;;;;5.45;3.65;;;20.90;98.00;;;;;;5004589;28;20567;-75
2023/07/23 09:11:10;;;;;;;6.90;3.73;;;21.00;98.50;;;;;;5018172;28;20060;-75
2023/07/23 09:14:20;;;;;;;5.93;3.50;;;21.00;97.70;;;;;;4967309;28;20415;-75
2023/07/23 09:17:06;;;;;;;7.80;3.30;;;21.30;97.50;;;;;;4972672;28;20046;-75
2023/07/23 09:19:53;;;;;;;5.47;3.72;;;21.40;96.90;;;;;;4948257;28;20134;-75
2023/07/23 09:22:40;;;;;;;6.35;3.65;;;21.50;96.90;;;;;;4977984;28;20120;-73
2023/07/23 09:25:26;;;;;;;8.60;3.47;;;21.50;96.00;;;;;;4990647;28;20030;-72
2023/07/23 09:28:22;;;;;;;8.77;3.30;;;21.60;95.70;;;;;;4959947;28;20054;-74
2023/07/23 09:31:10;;;;;;;7.38;3.40;;;21.60;95.80;;;;;;4974675;28;20136;-73
2023/07/23 09:33:58;;;;;;;7.18;2.92;;;21.60;95.70;;;;;;4970956;28;20125;-73
2023/07/23 09:36:46;;;;;;;8.85;3.88;;;21.80;95.50;;;;;;4971347;28;20049;-73
2023/07/23 09:39:32;;;;;;;8.20;3.60;;;21.80;94.40;;;;;;4975381;28;20133;-72
2023/07/23 09:42:21;;;;;;;9.20;4.13;;;21.70;95.00;;;;;;4990899;28;20074;-73
2023/07/23 09:45:07;;;;;;;4.78;3.00;;;21.70;94.40;;;;;;4972649;28;20381;-72
2023/07/23 09:47:53;;;;;;;8.98;3.38;;;21.70;94.70;;;;;;4987383;28;20109;-72
2023/07/23 09:50:39;;;;;;;7.03;3.38;;;21.70;93.20;;;;;;4975362;28;20078;-72
2023/07/23 09:53:25;;;;;;;6.80;3.42;;;21.80;93.10;;;;;;4974828;28;20050;-72
2023/07/23 09:56:15;;;;;;;10.43;3.60;;;21.80;93.10;;;;;;4987131;28;20053;-72
2023/07/23 09:59:01;;;;;;;8.30;3.42;;;21.80;93.40;;;;;;4987195;28;20046;-73
2023/07/23 10:01:49;;;;;;;9.45;3.60;;;21.80;93.70;;;;;;4987551;28;20049;-73
2023/07/23 10:04:34;;;;;;;7.10;3.08;;;21.80;93.50;;;;;;4985267;28;20038;-73
2023/07/23 10:07:20;;;;;;;7.22;3.10;;;21.80;92.90;;;;;;4985104;28;20108;-75
2023/07/23 10:10:07;;;;;;;6.00;3.67;;;21.90;92.20;;;;;;4984939;28;20053;-75
2023/07/23 10:12:54;;;;;;;6.43;3.10;;;21.90;92.60;;;;;;4979850;28;20069;-75
2023/07/23 10:15:40;;;;;;;4.23;2.90;;;21.90;91.50;;;;;;4979025;28;20050;-74
2023/07/23 10:18:27;;;;;;;6.53;3.28;;;21.90;91.70;;;;;;5010055;28;20073;-74
2023/07/23 10:21:13;;;;;;;4.65;2.85;;;22.00;92.10;;;;;;5009013;28;20045;-74
2023/07/23 10:24:00;;;;;;;6.40;3.10;;;22.00;91.80;;;;;;4986443;28;20281;-76
2023/07/23 10:26:49;;;;;;;5.22;2.88;;;22.10;92.70;;;;;;4987586;28;20796;-75
2023/07/23 10:29:35;;;;;;;3.85;2.85;;;22.20;90.80;;;;;;4987692;28;20416;-75
2023/07/23 10:32:26;;;;;;;4.85;3.05;;;22.20;91.80;;;;;;4989134;28;20038;-75
2023/07/23 10:35:12;;;;;;;6.70;2.95;;;22.30;91.60;;;;;;4990666;28;20042;-75
2023/07/23 10:38:39;;;;;;;5.07;3.03;;;22.30;91.30;;;;;;4981512;28;20038;-75
2023/07/23 10:41:55;;;;;;;9.40;2.63;;;22.30;91.40;;;;;;4992127;28;20039;-75
2023/07/23 10:44:41;;;;;;;8.13;2.55;;;22.30;91.10;;;;;;4993754;28;20466;-76
2023/07/23 10:47:39;;;;;;;4.55;2.67;;;22.30;90.50;;;;;;4993411;28;20042;-75
2023/07/23 10:50:27;;;;;;;4.97;2.97;;;22.40;90.00;;;;;;5002947;28;20370;-75
2023/07/23 10:53:13;;;;;;;4.72;2.78;;;22.50;88.00;;;;;;5000680;28;20045;-80
2023/07/23 10:55:59;;;;;;;3.50;2.58;;;22.50;86.30;;;;;;4998789;28;20042;-79
2023/07/23 10:58:45;;;;;;;7.40;2.58;;;22.50;85.60;;;;;;4998600;28;20104;-79
2023/07/23 11:01:42;;;;;;;6.88;3.20;;;22.50;84.60;;;;;;5004417;28;20078;-79
2023/07/23 11:04:30;;;;;;;3.63;2.38;;;22.60;86.50;;;;;;5014008;28;20431;-79
2023/07/23 11:07:25;;;;;;;6.65;2.58;;;22.60;85.90;;;;;;4980936;28;20068;-79
2023/07/23 11:10:19;;;;;;;5.75;2.55;;;22.60;85.60;;;;;;4990913;28;20052;-78
2023/07/23 11:13:05;;;;;;;5.50;3.20;;;22.50;84.70;;;;;;4991147;28;20069;-74
2023/07/23 11:15:51;;;;;;;4.40;2.67;;;22.40;85.80;;;;;;4987345;28;20118;-75
2023/07/23 11:18:37;;;;;;;5.88;2.60;;;22.30;84.50;;;;;;4985780;28;20042;-74
2023/07/23 11:21:27;;;;;;;4.85;2.50;;;22.30;84.70;;;;;;4994972;28;20116;-74
2023/07/23 11:24:13;;;;;;;6.60;2.38;;;22.20;84.30;;;;;;4979355;28;20367;-75
2023/07/23 11:27:01;;;;;;;5.32;2.70;;;22.10;84.60;;;;;;4994692;28;20049;-75
2023/07/23 11:29:47;;;;;;;5.05;2.60;;;22.10;85.80;;;;;;4972611;28;20047;-75
2023/07/23 11:32:33;;;;;;;5.55;2.78;;;22.10;85.40;;;;;;4956333;28;20522;-75
2023/07/23 11:35:19;;;;;;;7.38;2.67;;;22.10;86.20;;;;;;4991644;28;20042;-75
2023/07/23 11:38:05;;;;;;;5.63;2.60;;;22.10;86.40;;;;;;4991754;28;20030;-75
2023/07/23 11:40:57;;;;;;;6.72;3.10;;;22.00;86.20;;;;;;4962316;28;20050;-75
2023/07/23 11:43:43;;;;;;;6.43;2.83;;;22.00;86.50;;;;;;4990884;28;21095;-74
2023/07/23 11:46:33;;;;;;;4.30;2.53;;;22.00;87.00;;;;;;4961301;28;20043;-75
2023/07/23 11:49:18;;;;;;;8.00;2.47;;;22.10;88.30;;;;;;4972808;28;20062;-74
2023/07/23 11:52:05;;;;;;;4.60;2.67;;;22.10;88.30;;;;;;4963285;28;20046;-74
2023/07/23 11:54:51;;;;;;;5.45;2.55;;;22.00;85.30;;;;;;4976943;28;20133;-74
2023/07/23 11:57:37;;;;;;;5.13;2.60;;;22.00;86.00;;;;;;4991578;28;20664;-75
2023/07/23 12:00:48;;;;;;;6.97;2.78;;;22.00;87.40;;;;;;4979290;28;20046;-75
2023/07/23 12:03:43;;;;;;;7.00;2.53;;;22.00;88.70;;;;;;4982191;28;20073;-74
2023/07/23 12:06:32;;;;;;;6.57;2.60;;;21.90;87.80;;;;;;4986992;28;20046;-74
2023/07/23 12:09:18;;;;;;;5.45;2.50;;;21.80;88.50;;;;;;4991378;28;20045;-74
2023/07/23 12:12:05;;;;;;;6.05;2.80;;;21.80;88.70;;;;;;4992857;28;20129;-74
2023/07/23 12:15:04;;;;;;;3.92;2.40;;;21.80;89.50;;;;;;5016975;28;20132;-74
2023/07/23 12:17:51;;;;;;;5.95;2.70;;;21.80;90.00;;;;;;5005901;28;20037;-73
2023/07/23 12:20:37;;;;;;;6.57;2.40;;;21.80;90.10;;;;;;5017283;28;20168;-74
2023/07/23 12:23:23;;;;;;;3.28;2.80;;;21.70;90.20;;;;;;4998373;28;20421;-74
2023/07/23 12:26:09;;;;;;;6.05;2.40;;;21.70;90.30;;;;;;5009643;28;20073;-74
2023/07/23 12:28:56;;;;;;;7.40;2.90;;;21.80;90.90;;;;;;5018810;28;20064;-74
2023/07/23 12:31:43;;;;;;;8.77;2.92;;;21.70;90.20;;;;;;5011638;28;20479;-74
2023/07/23 12:34:29;;;;;;;6.10;2.75;;;21.70;90.60;;;;;;4998797;28;20437;-74
2023/07/23 12:37:16;;;;;;;4.25;2.53;;;21.80;90.80;;;;;;5020376;28;20049;-73
2023/07/23 12:40:06;;;;;;;6.45;2.42;;;21.80;91.00;;;;;;4987221;28;20056;-74
2023/07/23 12:42:52;;;;;;;4.45;2.83;;;21.70;91.80;;;;;;4999507;28;20495;-74
2023/07/23 12:45:38;;;;;;;4.60;2.30;;;21.70;92.20;;;;;;4991868;28;20048;-74
2023/07/23 12:48:24;;;;;;;6.32;3.10;;;21.70;92.60;;;;;;5008224;28;20413;-74
2023/07/23 12:51:10;;;;;;;5.93;2.42;;;21.60;92.40;;;;;;5017255;28;20037;-74
2023/07/23 12:53:56;;;;;;;3.95;2.30;;;21.60;92.50;;;;;;5018326;28;20060;-74
2023/07/23 12:56:42;;;;;;;4.78;2.65;;;21.50;92.50;;;;;;4996414;28;20497;-75
2023/07/23 12:59:31;;;;;;;5.72;2.30;;;21.50;92.60;;;;;;4998984;28;20084;-75
2023/07/23 13:02:17;;;;;;;8.80;2.30;;;21.60;93.30;;;;;;5011497;28;20048;-75
2023/07/23 13:05:04;;;;;;;6.47;2.55;;;21.60;93.30;;;;;;5013407;28;20042;-74
2023/07/23 13:07:50;;;;;;;7.78;2.70;;;21.50;93.20;;;;;;5016643;28;20592;-75
2023/07/23 13:10:36;;;;;;;5.35;2.22;;;21.50;93.40;;;;;;5017280;28;20624;-74
2023/07/23 13:13:22;;;;;;;4.50;2.30;;;21.30;93.90;;;;;;5017866;28;20053;-74
2023/07/23 13:16:11;;;;;;;5.10;2.60;;;21.30;94.30;;;;;;4998985;28;20044;-73
2023/07/23 13:18:57;;;;;;;5.18;2.92;;;21.10;95.00;;;;;;5015082;28;20091;-74
2023/07/23 13:21:43;;;;;;;5.25;2.40;;;21.00;95.60;;;;;;5030721;28;20437;-74
2023/07/23 13:24:29;;;;;;;4.22;2.05;;;21.00;95.60;;;;;;5017728;28;20033;-74
2023/07/23 13:27:15;;;;;;;6.50;1.90;;;20.90;95.90;;;;;;5013706;28;20377;-75
2023/07/23 13:30:01;;;;;;;3.47;2.00;;;20.90;96.40;;;;;;5016397;28;20544;-75
2023/07/23 13:32:47;;;;;;;5.80;1.88;;;20.80;96.60;;;;;;5017191;28;20060;-75
2023/07/23 13:35:33;;;;;;;3.15;2.10;;;20.70;96.80;;;;;;4999835;28;20041;-75
2023/07/23 13:38:22;;;;;;;4.05;2.10;;;20.70;97.10;;;;;;5011899;28;20042;-75
2023/07/23 13:41:08;;;;;;;3.28;2.00;;;20.60;97.20;;;;;;4991177;28;20051;-77
2023/07/23 13:43:54;;;;;;;5.32;1.92;;;20.60;97.60;;;;;;5003500;28;20049;-78
2023/07/23 13:46:40;;;;;;;3.83;1.92;;;20.60;97.70;;;;;;5006018;28;20038;-77
2023/07/23 13:49:27;;;;;;;5.57;2.45;;;20.60;97.90;;;;;;5002610;28;20646;-75
2023/07/23 13:52:13;;;;;;;10.32;3.10;;;20.70;97.80;;;;;;5007275;28;20489;-77
2023/07/23 13:55:09;;;;;;;6.43;2.78;;;20.70;97.50;;;;;;4998680;28;20115;-77
2023/07/23 13:57:55;;;;;;;5.25;2.90;;;20.70;97.90;;;;;;4987701;28;20049;-73
2023/07/23 14:00:41;;;;;;;6.90;2.60;;;20.70;97.90;;;;;;5017517;28;20041;-74
2023/07/23 14:03:27;;;;;;;4.63;2.78;;;20.70;97.80;;;;;;5007999;28;20048;-74
2023/07/23 14:06:13;;;;;;;5.47;2.60;;;20.70;98.20;;;;;;4996825;28;20762;-76
2023/07/23 14:08:59;;;;;;;3.50;2.17;;;20.80;97.80;;;;;;4999007;28;20648;-77
2023/07/23 14:11:45;;;;;;;4.55;2.33;;;20.70;97.70;;;;;;4986220;28;20356;-77
2023/07/23 14:14:31;;;;;;;5.43;2.15;;;20.80;97.80;;;;;;5018683;28;20049;-77
2023/07/23 14:17:18;;;;;;;4.68;2.40;;;20.80;97.20;;;;;;5004503;28;20037;-76
2023/07/23 14:20:06;;;;;;;6.38;2.35;;;20.70;96.70;;;;;;5005668;28;20042;-73
2023/07/23 14:22:51;;;;;;;4.35;2.15;;;20.80;96.90;;;;;;5004326;28;20045;-77